Time;durP1;ratioP1;P1;durP2;ratioP2;P2;SDS_P1;SDS_P2;PMS_P1;PMS_P2;Temp;Humidity;BMP_temperature;BMP_pressure;BME280_temperature;BME280_humidity;BME280_pressure;Samples;Min_cycle;Max_cycle;Signal;HPM_P1;HPM_P2
2021/11/02 00:01:09;;;;;;;4.25;1.92;;;6.90;99.90;;;;;;4974985;28;20563;-93
2021/11/02 00:03:36;;;;;;;2.35;1.80;;;6.90;99.90;;;;;;4978773;28;20026;-96
2021/11/02 00:06:02;;;;;;;2.17;1.15;;;6.90;99.90;;;;;;4979140;28;20030;-94
2021/11/02 00:08:28;;;;;;;2.55;1.85;;;6.90;99.90;;;;;;4964654;28;20034;-93
2021/11/02 00:10:53;;;;;;;2.97;1.75;;;6.90;99.90;;;;;;4971314;28;20030;-93
2021/11/02 00:13:25;;;;;;;4.85;1.48;;;6.90;99.90;;;;;;4975537;28;20035;-94
2021/11/02 00:15:53;;;;;;;2.58;1.30;;;6.90;99.90;;;;;;5001853;28;20034;-93
2021/11/02 00:18:25;;;;;;;2.30;1.38;;;6.90;99.90;;;;;;4984588;28;20081;-94
2021/11/02 00:20:58;;;;;;;3.17;1.45;;;6.90;99.90;;;;;;4985264;28;20019;-94
2021/11/02 00:23:24;;;;;;;2.65;1.00;;;6.90;99.90;;;;;;4984397;28;20054;-93
2021/11/02 00:25:49;;;;;;;2.38;1.35;;;6.90;99.90;;;;;;4983207;28;20019;-93
2021/11/02 00:28:15;;;;;;;2.45;0.90;;;6.90;99.90;;;;;;5013658;28;20065;-93
2021/11/02 00:30:44;;;;;;;2.38;0.75;;;6.90;99.90;;;;;;4980771;28;20031;-94
2021/11/02 00:33:09;;;;;;;1.90;1.33;;;6.90;99.90;;;;;;4982077;28;20134;-93
2021/11/02 00:35:36;;;;;;;1.52;0.80;;;6.90;99.90;;;;;;4978385;28;20298;-93
2021/11/02 00:38:02;;;;;;;1.42;1.08;;;6.90;99.90;;;;;;4978272;28;20030;-93
2021/11/02 00:40:28;;;;;;;0.88;0.70;;;6.90;99.90;;;;;;4979326;28;20174;-93
2021/11/02 00:42:57;;;;;;;0.90;0.65;;;6.90;99.90;;;;;;4979313;28;20037;-93
2021/11/02 00:45:32;;;;;;;0.57;0.52;;;6.90;99.90;;;;;;4978964;28;20022;-92
2021/11/02 00:47:59;;;;;;;0.90;0.63;;;6.80;99.90;;;;;;4976781;28;20034;-94
2021/11/02 00:50:32;;;;;;;3.28;0.68;;;6.90;99.90;;;;;;4978810;28;20038;-94
2021/11/02 00:52:58;;;;;;;0.98;0.70;;;6.90;99.90;;;;;;4993437;28;20023;-93
2021/11/02 00:55:24;;;;;;;2.45;0.60;;;6.80;99.90;;;;;;4979471;28;20531;-93
2021/11/02 00:57:49;;;;;;;1.52;0.50;;;6.80;99.90;;;;;;4979038;28;20026;-92
2021/11/02 01:00:16;;;;;;;0.57;0.52;;;6.80;99.90;;;;;;4978639;28;20041;-91
2021/11/02 01:02:42;;;;;;;0.50;0.50;;;6.80;99.90;;;;;;4978366;28;20054;-93
2021/11/02 01:05:09;;;;;;;1.02;0.60;;;6.80;99.90;;;;;;4978596;28;20791;-92
2021/11/02 01:07:35;;;;;;;1.02;0.43;;;6.80;99.90;;;;;;4978479;28;20476;-93
2021/11/02 01:10:02;;;;;;;0.95;0.50;;;6.80;99.90;;;;;;4978571;28;20023;-93
2021/11/02 01:12:28;;;;;;;0.90;0.50;;;6.80;99.90;;;;;;4978756;28;20030;-93
2021/11/02 01:14:54;;;;;;;0.50;0.50;;;6.80;99.90;;;;;;4979478;28;20026;-93
2021/11/02 01:17:20;;;;;;;1.20;0.50;;;6.80;99.90;;;;;;4980461;28;20117;-92
2021/11/02 01:19:45;;;;;;;0.85;0.50;;;6.80;99.90;;;;;;4979217;28;20018;-93
2021/11/02 01:22:11;;;;;;;2.15;0.50;;;6.80;99.90;;;;;;4999036;28;20042;-94
2021/11/02 01:24:38;;;;;;;0.38;0.38;;;6.80;99.90;;;;;;4980686;28;20412;-94
2021/11/02 01:27:03;;;;;;;0.75;0.30;;;6.80;99.90;;;;;;4979603;28;20480;-94
2021/11/02 01:29:29;;;;;;;0.45;0.35;;;6.80;99.90;;;;;;4978431;28;20092;-92
2021/11/02 01:31:55;;;;;;;2.33;0.55;;;6.80;99.90;;;;;;4978371;28;20137;-93
2021/11/02 01:34:21;;;;;;;0.50;0.40;;;6.70;99.90;;;;;;4978565;28;20168;-94
2021/11/02 01:36:49;;;;;;;1.73;0.47;;;6.70;99.90;;;;;;4979707;28;20026;-94
2021/11/02 01:39:15;;;;;;;0.73;0.45;;;6.70;99.90;;;;;;4979800;28;20022;-92
2021/11/02 01:41:41;;;;;;;1.92;0.70;;;6.70;99.90;;;;;;4978939;28;20066;-92
2021/11/02 01:44:07;;;;;;;3.35;0.43;;;6.70;99.90;;;;;;4978981;28;20049;-96
2021/11/02 01:46:37;;;;;;;3.67;0.52;;;6.70;99.90;;;;;;4979718;28;20044;-95
2021/11/02 01:49:05;;;;;;;;;;;6.70;99.90;;;;;;4979856;28;20026;-95
2021/11/02 01:51:33;;;;;;;1.13;0.47;;;6.70;99.90;;;;;;4977608;28;19906;-92
2021/11/02 01:54:00;;;;;;;2.38;1.00;;;6.70;99.90;;;;;;4976663;28;20102;-93
2021/11/02 01:56:26;;;;;;;0.50;0.40;;;6.60;99.90;;;;;;4976451;28;20034;-94
2021/11/02 01:58:53;;;;;;;2.25;0.60;;;6.60;99.90;;;;;;4976651;28;20493;-93
2021/11/02 02:01:31;;;;;;;1.08;0.40;;;6.60;99.90;;;;;;4976073;28;20046;-95
2021/11/02 02:04:25;;;;;;;1.77;0.60;;;6.60;99.90;;;;;;4976562;28;20520;-94
2021/11/02 02:07:13;;;;;;;1.30;0.50;;;6.60;99.90;;;;;;4976502;28;20026;-95
2021/11/02 02:10:05;;;;;;;0.28;0.28;;;6.60;99.90;;;;;;4992498;28;20053;-95
2021/11/02 02:13:01;;;;;;;0.88;0.30;;;6.50;99.90;;;;;;4976122;28;20041;-95
2021/11/02 02:16:01;;;;;;;0.98;0.60;;;6.60;99.90;;;;;;4976166;28;20034;-95
2021/11/02 02:18:42;;;;;;;0.45;0.45;;;6.50;99.90;;;;;;4975394;28;20038;-94
2021/11/02 02:21:47;;;;;;;0.70;0.30;;;6.50;99.90;;;;;;4976153;28;20030;-95
2021/11/02 02:24:31;;;;;;;0.82;0.40;;;6.50;99.90;;;;;;4992447;28;20019;-95
2021/11/02 02:27:03;;;;;;;4.45;0.50;;;6.50;99.90;;;;;;4992104;28;20110;-94
2021/11/02 02:29:31;;;;;;;3.00;0.43;;;6.50;99.90;;;;;;4976048;28;20026;-95
2021/11/02 02:31:59;;;;;;;2.22;0.60;;;6.50;99.90;;;;;;4976108;28;20062;-94
2021/11/02 02:34:26;;;;;;;2.55;0.43;;;6.50;99.90;;;;;;4976078;28;20026;-94
2021/11/02 02:36:53;;;;;;;0.30;0.30;;;6.50;99.90;;;;;;4976124;28;20476;-94
2021/11/02 02:39:20;;;;;;;1.70;0.40;;;6.50;99.90;;;;;;4983440;28;20109;-92
2021/11/02 02:41:47;;;;;;;1.40;0.50;;;6.50;99.90;;;;;;4981576;28;20081;-95
2021/11/02 02:44:14;;;;;;;1.02;0.43;;;6.60;99.90;;;;;;4980155;28;20026;-95
2021/11/02 02:46:40;;;;;;;2.40;0.43;;;6.60;99.90;;;;;;4980658;28;20034;-94
2021/11/02 02:49:08;;;;;;;1.52;0.45;;;6.50;99.90;;;;;;4981249;28;20018;-95
2021/11/02 02:51:35;;;;;;;2.38;0.47;;;6.60;99.90;;;;;;4981428;28;20030;-94
2021/11/02 02:54:02;;;;;;;2.22;0.52;;;6.60;99.90;;;;;;4981837;28;20023;-93
2021/11/02 02:56:31;;;;;;;1.92;0.47;;;6.60;99.90;;;;;;4982273;28;20065;-94
2021/11/02 02:59:02;;;;;;;1.50;0.90;;;6.60;99.90;;;;;;4981997;28;20037;-95
2021/11/02 03:01:28;;;;;;;1.13;0.52;;;6.60;99.90;;;;;;4981770;28;20058;-94
2021/11/02 03:03:57;;;;;;;0.82;0.40;;;6.60;99.90;;;;;;4982677;28;20119;-94
2021/11/02 03:06:26;;;;;;;2.60;0.45;;;6.60;99.90;;;;;;4983606;28;20177;-93
2021/11/02 03:08:53;;;;;;;5.18;0.60;;;6.60;99.90;;;;;;4994421;28;20065;-94
2021/11/02 03:11:20;;;;;;;1.08;0.47;;;6.60;99.90;;;;;;4995230;28;20035;-94
2021/11/02 03:13:50;;;;;;;0.77;0.40;;;6.60;99.90;;;;;;4996564;28;20060;-94
2021/11/02 03:16:24;;;;;;;1.30;0.50;;;6.60;99.90;;;;;;4995917;28;20053;-93
2021/11/02 03:50:13;;;;;;;3.08;0.80;;;6.50;99.90;;;;;;4958153;29;20046;-94
2021/11/02 03:54:31;;;;;;;1.58;1.00;;;6.50;99.90;;;;;;4952297;28;20457;-93
2021/11/02 03:55:06;;;;;;;5.72;1.10;;;6.50;99.90;;;;;;4957738;29;20019;-95
2021/11/02 03:57:44;;;;;;;0.60;0.50;;;6.50;99.90;;;;;;4971387;28;20041;-94
2021/11/02 04:26:21;;;;;;;3.10;0.80;;;6.30;99.90;;;;;;4926256;29;20084;-94
2021/11/02 04:28:26;;;;;;;2.65;1.05;;;6.30;99.90;;;;;;4913095;29;20573;-93
2021/11/02 05:55:46;;;;;;;3.10;1.45;;;6.10;99.90;;;;;;4997567;28;20094;-94
2021/11/02 05:58:23;;;;;;;2.33;1.30;;;6.10;99.90;;;;;;4995652;28;20026;-95
2021/11/02 06:03:32;;;;;;;4.18;1.17;;;6.10;99.90;;;;;;4995382;28;20047;-95
2021/11/02 06:06:12;;;;;;;2.05;0.90;;;6.10;99.90;;;;;;4979225;28;20050;-94
2021/11/02 06:09:13;;;;;;;5.13;1.20;;;6.10;99.90;;;;;;4996554;28;20062;-94
2021/11/02 06:28:40;;;;;;;3.10;1.00;;;5.80;99.90;;;;;;5002930;28;20105;-93
2021/11/02 06:31:15;;;;;;;1.17;0.85;;;5.70;99.90;;;;;;4986289;28;20033;-93
2021/11/02 06:34:07;;;;;;;6.68;1.40;;;5.60;99.90;;;;;;4986518;28;20029;-94
2021/11/02 06:42:11;;;;;;;3.80;1.30;;;5.50;99.90;;;;;;5008322;28;20038;-95
2021/11/02 07:20:49;;;;;;;10.13;1.33;;;5.10;99.90;;;;;;4903890;29;20120;-93
2021/11/02 07:26:39;;;;;;;6.85;1.95;;;5.10;99.90;;;;;;4886898;29;20387;-94
2021/11/02 08:45:39;;;;;;;13.65;3.83;;;5.60;99.90;;;;;;4999925;28;20037;-94
2021/11/02 08:48:01;;;;;;;8.63;3.20;;;5.70;99.90;;;;;;4997244;28;20038;-95
2021/11/02 08:50:31;;;;;;;6.90;3.90;;;5.80;99.90;;;;;;5107724;23;20058;-94
2021/11/02 08:52:57;;;;;;;8.85;3.03;;;5.90;99.90;;;;;;4994845;28;20046;-95
2021/11/02 08:55:23;;;;;;;11.50;3.08;;;5.90;99.90;;;;;;4996362;28;20041;-94
2021/11/02 08:57:53;;;;;;;10.13;2.95;;;6.10;99.90;;;;;;5010975;28;20018;-95
2021/11/02 09:00:20;;;;;;;8.55;2.78;;;6.10;99.90;;;;;;5012987;28;20042;-95
2021/11/02 09:03:04;;;;;;;8.20;2.42;;;6.30;99.90;;;;;;5008738;28;20042;-95
2021/11/02 09:05:34;;;;;;;9.50;2.75;;;6.40;99.90;;;;;;5006489;28;20014;-95
2021/11/02 09:08:04;;;;;;;13.52;2.20;;;6.60;99.90;;;;;;5003197;28;20030;-95
2021/11/02 09:10:30;;;;;;;13.02;2.17;;;6.80;99.90;;;;;;4998554;28;20113;-95
2021/11/02 09:12:57;;;;;;;8.38;2.22;;;7.00;99.90;;;;;;4998464;28;20094;-95
2021/11/02 09:15:31;;;;;;;10.90;2.80;;;7.20;99.90;;;;;;4995866;28;20027;-93
2021/11/02 09:18:03;;;;;;;7.25;1.73;;;7.50;99.90;;;;;;4995567;28;20108;-95
2021/11/02 09:20:28;;;;;;;7.78;1.80;;;7.80;99.90;;;;;;4994491;28;20030;-95
2021/11/02 09:22:54;;;;;;;7.47;1.40;;;8.10;99.90;;;;;;4993871;28;20169;-95
2021/11/02 09:25:21;;;;;;;6.07;1.70;;;8.40;99.90;;;;;;4996278;28;20039;-94
2021/11/02 09:27:48;;;;;;;8.13;2.63;;;8.70;99.90;;;;;;4997165;28;20488;-94
2021/11/02 09:30:16;;;;;;;12.20;2.88;;;9.00;99.90;;;;;;4997932;28;20029;-93
2021/11/02 09:32:43;;;;;;;7.57;1.95;;;9.30;99.90;;;;;;4996834;28;20022;-94
2021/11/02 09:35:10;;;;;;;9.77;2.20;;;9.60;99.90;;;;;;4994805;28;20030;-93
2021/11/02 09:37:37;;;;;;;6.45;1.45;;;9.90;99.90;;;;;;4996023;28;20026;-94
2021/11/02 09:40:27;;;;;;;11.50;2.25;;;10.20;99.90;;;;;;5010768;28;20042;-96
2021/11/02 09:43:09;;;;;;;4.68;1.52;;;10.50;99.90;;;;;;5018052;28;20045;-94
2021/11/02 09:45:59;;;;;;;5.25;1.50;;;10.60;99.90;;;;;;5019569;28;20030;-94
2021/11/02 09:48:28;;;;;;;8.70;1.95;;;10.80;99.90;;;;;;5018247;28;20029;-94
2021/11/02 09:51:00;;;;;;;12.65;1.88;;;11.00;99.90;;;;;;5015843;28;20050;-94
2021/11/02 09:53:49;;;;;;;5.88;1.58;;;11.00;99.90;;;;;;5020042;28;20029;-93
2021/11/02 09:56:32;;;;;;;4.85;1.50;;;11.00;99.90;;;;;;5083765;23;20064;-93
2021/11/02 09:59:35;;;;;;;4.78;1.55;;;11.00;99.90;;;;;;5005765;28;20042;-94
2021/11/02 10:02:43;;;;;;;7.20;1.20;;;10.90;99.90;;;;;;4997867;28;20030;-93
2021/11/02 10:05:30;;;;;;;9.43;1.55;;;10.90;99.90;;;;;;5014838;28;20030;-95
2021/11/02 10:08:30;;;;;;;7.10;0.82;;;10.80;99.90;;;;;;5016684;28;20423;-95
2021/11/02 10:14:11;;;;;;;6.10;2.08;;;11.00;99.90;;;;;;5049511;22;20054;-95
2021/11/02 10:16:54;;;;;;;6.10;0.93;;;11.20;99.90;;;;;;4962682;28;20468;-94
2021/11/02 10:19:32;;;;;;;7.82;1.42;;;11.60;99.90;;;;;;4975028;28;20293;-95
2021/11/02 10:22:06;;;;;;;4.50;1.52;;;11.80;99.90;;;;;;4982483;28;20457;-95
2021/11/02 10:25:05;;;;;;;6.10;1.27;;;11.90;99.90;;;;;;4982837;28;20546;-93
2021/11/02 10:27:55;;;;;;;6.07;1.85;;;11.90;99.90;;;;;;4957706;28;20061;-95
2021/11/02 10:30:42;;;;;;;7.85;1.40;;;11.90;99.90;;;;;;4957822;28;20031;-92
2021/11/02 10:33:36;;;;;;;8.13;1.48;;;11.80;99.90;;;;;;4975078;28;20635;-95
2021/11/02 10:36:16;;;;;;;6.10;1.10;;;11.80;99.90;;;;;;4957967;28;20034;-94
2021/11/02 10:38:50;;;;;;;9.15;1.33;;;12.00;99.90;;;;;;4958092;28;20039;-96
2021/11/02 10:41:23;;;;;;;7.43;1.42;;;12.40;99.90;;;;;;4973780;28;20428;-93
2021/11/02 10:44:10;;;;;;;6.40;1.17;;;12.50;99.90;;;;;;4957914;28;20037;-95
2021/11/02 10:46:43;;;;;;;4.82;0.77;;;12.50;99.90;;;;;;4957771;28;20081;-95
2021/11/02 10:49:36;;;;;;;8.82;1.13;;;12.70;99.90;;;;;;4957710;28;20093;-93
2021/11/02 10:52:05;;;;;;;2.65;0.93;;;12.90;99.90;;;;;;4957996;28;20023;-92
2021/11/02 10:54:48;;;;;;;7.88;1.17;;;13.10;99.90;;;;;;4973575;28;20042;-94
2021/11/02 10:57:37;;;;;;;6.07;1.83;;;13.40;99.90;;;;;;4957996;28;20061;-94
2021/11/02 11:00:07;;;;;;;6.90;1.13;;;13.70;99.30;;;;;;4957498;28;20122;-92
2021/11/02 11:02:33;;;;;;;6.13;1.10;;;14.00;98.20;;;;;;4976030;28;20038;-94
2021/11/02 11:05:00;;;;;;;4.70;1.00;;;14.30;97.40;;;;;;4978566;28;20045;-93
2021/11/02 11:07:28;;;;;;;4.57;0.90;;;14.70;96.60;;;;;;4961916;28;20117;-94
2021/11/02 11:09:55;;;;;;;6.20;1.27;;;15.00;95.70;;;;;;4962361;28;20556;-95
2021/11/02 11:12:22;;;;;;;5.47;0.90;;;15.10;94.20;;;;;;4995320;28;20062;-93
2021/11/02 11:14:53;;;;;;;5.65;0.90;;;15.10;92.10;;;;;;4963477;28;20034;-95
2021/11/02 11:17:31;;;;;;;5.15;1.08;;;14.90;91.70;;;;;;4962584;28;20054;-96
2021/11/02 11:20:09;;;;;;;4.60;1.05;;;14.70;91.40;;;;;;4978760;28;20026;-93
2021/11/02 11:22:45;;;;;;;6.85;1.20;;;14.40;91.00;;;;;;4961462;28;20038;-95
2021/11/02 11:25:19;;;;;;;5.35;1.02;;;14.20;91.30;;;;;;4978529;28;20022;-95
2021/11/02 11:27:58;;;;;;;9.60;1.85;;;14.20;91.50;;;;;;4994017;28;20054;-95
2021/11/02 11:30:32;;;;;;;9.95;2.05;;;14.10;91.40;;;;;;4961701;28;20407;-94
2021/11/02 11:32:59;;;;;;;8.60;1.70;;;14.00;91.10;;;;;;4960976;28;20035;-94
2021/11/02 11:35:25;;;;;;;7.93;1.48;;;14.20;91.70;;;;;;4978380;28;20365;-94
2021/11/02 11:37:53;;;;;;;7.20;1.55;;;14.30;91.10;;;;;;4961952;28;20073;-93
2021/11/02 11:40:22;;;;;;;11.57;1.38;;;14.50;91.00;;;;;;4961374;28;20027;-93
2021/11/02 11:42:50;;;;;;;12.50;1.63;;;14.60;90.70;;;;;;4960771;28;20492;-94
2021/11/02 11:45:28;;;;;;;5.70;0.82;;;14.90;90.50;;;;;;4977945;28;20042;-95
2021/11/02 11:48:14;;;;;;;5.47;0.95;;;15.00;90.00;;;;;;4979480;28;20037;-94
2021/11/02 11:50:41;;;;;;;4.20;0.70;;;15.20;87.70;;;;;;4962576;28;20126;-94
2021/11/02 11:53:08;;;;;;;6.10;1.00;;;15.10;86.80;;;;;;4993617;28;20033;-94
2021/11/02 11:55:41;;;;;;;8.60;1.58;;;15.00;86.60;;;;;;4960705;28;20030;-94
2021/11/02 11:58:21;;;;;;;10.95;1.52;;;15.00;87.00;;;;;;4960808;28;20019;-94
2021/11/02 12:01:08;;;;;;;4.70;1.10;;;15.00;86.70;;;;;;4960505;28;20030;-96
2021/11/02 12:04:21;;;;;;;10.15;1.30;;;15.20;87.00;;;;;;4977874;28;20059;-93
2021/11/02 12:07:00;;;;;;;8.63;1.45;;;15.10;86.40;;;;;;4903999;29;20050;-93
2021/11/02 12:09:26;;;;;;;13.02;2.08;;;14.70;86.00;;;;;;4921424;29;20513;-92
2021/11/02 12:11:52;;;;;;;7.28;1.73;;;14.40;86.60;;;;;;4920832;29;20035;-94
2021/11/02 12:14:26;;;;;;;6.35;1.40;;;14.00;87.40;;;;;;4918365;29;20132;-93
2021/11/02 12:16:58;;;;;;;8.65;1.98;;;13.70;88.00;;;;;;4918891;29;20505;-92
2021/11/02 12:19:34;;;;;;;11.27;2.25;;;13.40;88.80;;;;;;4917165;29;20513;-94
2021/11/02 12:22:07;;;;;;;8.15;1.40;;;13.30;90.00;;;;;;4913546;29;20036;-93
2021/11/02 12:24:42;;;;;;;9.27;1.90;;;13.60;90.60;;;;;;4915296;29;20040;-95
2021/11/02 12:27:16;;;;;;;8.88;1.90;;;14.20;90.70;;;;;;4917129;29;20032;-93
2021/11/02 12:29:44;;;;;;;6.82;1.05;;;14.80;89.90;;;;;;4918413;29;20044;-94
2021/11/02 12:32:12;;;;;;;5.97;1.02;;;15.30;87.90;;;;;;4917007;29;20021;-93
2021/11/02 12:34:52;;;;;;;6.10;1.40;;;15.80;86.20;;;;;;4900726;29;20087;-94
2021/11/02 12:37:19;;;;;;;8.82;1.25;;;16.10;84.00;;;;;;4906858;29;20020;-94
2021/11/02 12:39:46;;;;;;;6.35;1.23;;;16.50;83.10;;;;;;4911171;28;20111;-94
2021/11/02 12:42:13;;;;;;;7.13;1.13;;;16.80;81.90;;;;;;4964271;28;20545;-94
2021/11/02 12:44:40;;;;;;;8.63;1.70;;;17.20;80.80;;;;;;4980820;28;20101;-95
2021/11/02 12:47:14;;;;;;;10.27;1.70;;;17.40;78.90;;;;;;4978501;28;20038;-93
2021/11/02 12:49:44;;;;;;;3.85;1.35;;;17.60;77.90;;;;;;4984978;28;20556;-94
2021/11/02 12:52:12;;;;;;;7.50;1.27;;;17.70;76.60;;;;;;4991265;28;20055;-94
2021/11/02 12:54:40;;;;;;;6.22;1.25;;;17.60;74.40;;;;;;4977105;28;20019;-94
2021/11/02 12:57:14;;;;;;;5.22;1.40;;;17.50;74.10;;;;;;4976116;28;20031;-94
2021/11/02 12:59:46;;;;;;;7.10;1.30;;;17.40;73.30;;;;;;4975461;28;20010;-94
2021/11/02 13:02:41;;;;;;;6.20;1.08;;;17.20;72.60;;;;;;4987845;28;20485;-94
2021/11/02 13:05:15;;;;;;;5.50;1.13;;;16.80;73.10;;;;;;4965179;28;20110;-94
2021/11/02 13:07:43;;;;;;;5.47;1.48;;;16.40;74.50;;;;;;4983865;28;20023;-95
2021/11/02 13:10:20;;;;;;;6.00;1.30;;;16.20;75.50;;;;;;4969281;28;20038;-95
2021/11/02 13:12:53;;;;;;;5.63;1.20;;;15.90;75.30;;;;;;4981884;28;20051;-94
2021/11/02 13:15:19;;;;;;;7.07;1.25;;;15.50;76.40;;;;;;4968554;28;20022;-94
2021/11/02 13:17:48;;;;;;;8.88;1.50;;;15.20;77.30;;;;;;4983215;28;20039;-94
2021/11/02 13:20:27;;;;;;;7.37;1.10;;;15.30;78.40;;;;;;4971441;28;20038;-94
2021/11/02 13:22:55;;;;;;;7.05;1.15;;;15.60;78.50;;;;;;4969909;28;20039;-94
2021/11/02 13:25:40;;;;;;;3.97;1.80;;;16.00;77.60;;;;;;4967460;28;20098;-95
2021/11/02 13:28:06;;;;;;;5.88;1.10;;;16.30;76.20;;;;;;4982176;28;20041;-94
2021/11/02 13:30:36;;;;;;;5.30;1.10;;;16.30;75.10;;;;;;4965800;28;20157;-94
2021/11/02 13:33:15;;;;;;;7.32;1.40;;;16.30;75.50;;;;;;4985669;28;20489;-95
2021/11/02 13:35:53;;;;;;;4.15;1.50;;;16.70;75.80;;;;;;4986209;28;20043;-95
2021/11/02 13:38:25;;;;;;;6.72;1.55;;;17.10;75.20;;;;;;4967476;28;20019;-94
2021/11/02 13:41:13;;;;;;;4.63;1.08;;;17.50;74.70;;;;;;4983738;28;20083;-95
2021/11/02 13:43:41;;;;;;;4.00;1.13;;;17.90;73.60;;;;;;4968304;28;20064;-95
2021/11/02 13:46:13;;;;;;;10.43;2.75;;;18.20;72.50;;;;;;4973249;28;20034;-94
2021/11/02 13:48:41;;;;;;;8.70;2.40;;;18.40;71.70;;;;;;4983518;28;20023;-95
2021/11/02 13:51:09;;;;;;;9.95;2.60;;;18.60;71.00;;;;;;4977801;28;20045;-94
2021/11/02 13:53:36;;;;;;;2.72;1.10;;;18.60;70.00;;;;;;4975862;28;20034;-94
2021/11/02 13:56:09;;;;;;;6.22;1.42;;;18.40;69.70;;;;;;4977183;28;20026;-95
2021/11/02 13:58:36;;;;;;;5.45;1.15;;;18.10;69.00;;;;;;4979650;28;20113;-94
2021/11/02 14:01:03;;;;;;;2.80;0.93;;;17.40;69.20;;;;;;4978504;28;20078;-94
2021/11/02 14:03:46;;;;;;;11.35;2.47;;;17.00;70.60;;;;;;4972225;28;20117;-94
2021/11/02 14:06:15;;;;;;;9.85;2.58;;;16.70;71.80;;;;;;4966530;28;20023;-94
2021/11/02 14:08:45;;;;;;;9.57;3.70;;;16.40;72.10;;;;;;4979360;28;20050;-93
2021/11/02 14:11:20;;;;;;;4.75;1.83;;;16.30;72.80;;;;;;4979634;28;20020;-93
2021/11/02 14:13:47;;;;;;;5.20;1.10;;;16.00;73.50;;;;;;4988086;28;20121;-94
2021/11/02 14:16:14;;;;;;;5.13;1.20;;;15.70;73.80;;;;;;5020269;28;20570;-94
2021/11/02 14:18:41;;;;;;;4.63;1.27;;;15.40;74.70;;;;;;5003646;28;20031;-95
2021/11/02 14:21:09;;;;;;;2.75;1.10;;;15.40;75.50;;;;;;5003420;28;20041;-93
2021/11/02 14:23:52;;;;;;;5.97;1.20;;;15.50;76.10;;;;;;5003478;28;20038;-93
2021/11/02 14:26:25;;;;;;;3.45;1.17;;;15.70;76.30;;;;;;5000165;28;20062;-93
2021/11/02 14:28:59;;;;;;;3.45;0.98;;;16.00;75.90;;;;;;5024353;28;20461;-94
2021/11/02 14:31:40;;;;;;;7.93;1.40;;;16.10;75.40;;;;;;4994384;28;20029;-94
2021/11/02 14:34:08;;;;;;;5.05;1.20;;;16.00;75.00;;;;;;5010407;28;20253;-95
2021/11/02 14:36:41;;;;;;;3.78;1.42;;;15.80;75.10;;;;;;5025821;28;20531;-93
2021/11/02 14:39:13;;;;;;;6.93;1.15;;;15.40;75.50;;;;;;4994700;28;20029;-94
2021/11/02 14:41:51;;;;;;;7.25;1.65;;;15.00;76.60;;;;;;4993688;28;20041;-93
2021/11/02 14:44:23;;;;;;;5.20;1.40;;;14.70;77.70;;;;;;4996578;28;20049;-94
2021/11/02 14:46:57;;;;;;;5.43;1.13;;;14.40;78.60;;;;;;5014497;28;20040;-94
2021/11/02 14:49:29;;;;;;;4.93;1.40;;;14.10;79.60;;;;;;4997099;28;20032;-94
2021/11/02 14:52:01;;;;;;;5.13;1.58;;;13.90;80.60;;;;;;5013967;28;20018;-94
2021/11/02 14:54:30;;;;;;;8.85;2.15;;;13.50;81.80;;;;;;5014983;28;20034;-94
2021/11/02 14:57:17;;;;;;;6.28;1.83;;;13.40;81.80;;;;;;5014165;28;20025;-93
2021/11/02 14:59:58;;;;;;;6.47;2.63;;;13.20;82.40;;;;;;4996488;28;20060;-94
2021/11/02 15:02:51;;;;;;;9.23;2.42;;;13.10;83.20;;;;;;4997019;28;20038;-94
2021/11/02 15:05:19;;;;;;;11.80;3.67;;;12.90;83.80;;;;;;5010453;28;20041;-94
2021/11/02 15:07:48;;;;;;;9.02;2.88;;;12.70;84.10;;;;;;4996361;28;20080;-94
2021/11/02 15:10:19;;;;;;;9.20;3.30;;;12.60;85.30;;;;;;4996470;28;20068;-94
2021/11/02 15:12:46;;;;;;;8.00;3.05;;;12.50;85.20;;;;;;4993724;28;20073;-94
2021/11/02 15:15:13;;;;;;;12.27;3.78;;;12.50;85.80;;;;;;4995130;28;20149;-94
2021/11/02 15:17:39;;;;;;;20.83;6.13;;;12.40;86.50;;;;;;4994910;28;20098;-94
2021/11/02 15:20:06;;;;;;;30.08;10.90;;;12.40;87.00;;;;;;4994155;28;20029;-93
2021/11/02 15:22:32;;;;;;;41.55;13.70;;;12.40;87.50;;;;;;4992812;28;20488;-94
2021/11/02 15:25:00;;;;;;;35.13;12.93;;;12.30;87.90;;;;;;4993180;28;20029;-93
2021/11/02 15:27:32;;;;;;;28.50;10.63;;;12.30;88.50;;;;;;4992868;28;20097;-94
2021/11/02 15:30:05;;;;;;;17.25;6.00;;;12.30;89.00;;;;;;4992790;28;20104;-93
2021/11/02 15:32:46;;;;;;;19.88;5.35;;;12.30;89.20;;;;;;4993404;28;20031;-94
2021/11/02 15:35:15;;;;;;;11.35;3.50;;;12.20;89.90;;;;;;4994017;28;20057;-94
2021/11/02 15:37:46;;;;;;;12.90;2.65;;;12.20;90.10;;;;;;4992573;28;20488;-94
2021/11/02 15:40:18;;;;;;;5.10;1.98;;;12.10;90.10;;;;;;4994334;28;20050;-94
2021/11/02 15:42:49;;;;;;;8.23;2.25;;;12.10;90.40;;;;;;4993857;28;20099;-94
2021/11/02 15:45:34;;;;;;;8.40;2.28;;;12.00;90.60;;;;;;4993222;28;20030;-93
2021/11/02 15:48:05;;;;;;;4.53;1.65;;;12.00;90.80;;;;;;4993225;28;20665;-93
2021/11/02 15:50:31;;;;;;;8.32;1.40;;;12.00;90.90;;;;;;4994721;28;20373;-94
2021/11/02 15:53:02;;;;;;;7.72;1.67;;;11.90;91.20;;;;;;4997542;28;20032;-94
2021/11/02 15:55:29;;;;;;;5.60;1.95;;;11.90;91.40;;;;;;4997727;28;20495;-95
2021/11/02 15:57:58;;;;;;;10.90;2.67;;;11.80;91.60;;;;;;4996185;28;20029;-94
2021/11/02 16:00:35;;;;;;;6.50;2.15;;;11.80;91.90;;;;;;4997190;28;20030;-92
2021/11/02 16:03:01;;;;;;;9.05;3.40;;;11.80;92.40;;;;;;4997178;28;20070;-93
2021/11/02 16:05:30;;;;;;;10.18;2.20;;;11.80;92.20;;;;;;4995523;28;20022;-93
2021/11/02 16:07:57;;;;;;;10.90;2.38;;;11.80;92.40;;;;;;4998604;28;20022;-94
2021/11/02 16:10:29;;;;;;;4.07;2.50;;;11.80;92.60;;;;;;5005841;28;20023;-92
2021/11/02 16:12:55;;;;;;;9.93;2.78;;;11.80;92.70;;;;;;5003055;28;20046;-93
2021/11/02 16:15:26;;;;;;;12.82;3.47;;;11.80;93.00;;;;;;4998813;28;20027;-92
2021/11/02 17:44:16;;;;;;;30.23;10.70;;;9.50;99.90;;;;;;5635122;22;20058;-93
2021/11/02 17:46:42;;;;;;;10.10;3.53;;;9.50;99.90;;;;;;5001316;28;20643;-93
2021/11/02 17:49:09;;;;;;;10.48;2.90;;;9.50;99.90;;;;;;5035659;28;20052;-93
2021/11/02 17:51:39;;;;;;;8.90;2.70;;;9.50;99.90;;;;;;5024121;28;20030;-95
2021/11/02 17:54:05;;;;;;;5.05;2.50;;;9.60;99.90;;;;;;5005538;28;20034;-94
2021/11/02 17:56:38;;;;;;;12.82;3.35;;;9.70;99.90;;;;;;5019225;28;20101;-94
2021/11/02 17:59:07;;;;;;;7.95;2.35;;;9.80;99.90;;;;;;5017359;28;20014;-94
2021/11/02 18:01:34;;;;;;;11.02;3.63;;;9.80;99.90;;;;;;5020774;28;20106;-96
2021/11/02 18:04:09;;;;;;;10.43;3.70;;;9.90;99.90;;;;;;5427801;23;20081;-94
2021/11/02 18:06:35;;;;;;;12.18;4.05;;;10.00;99.90;;;;;;5030494;28;20033;-93
2021/11/02 18:09:01;;;;;;;10.50;3.33;;;10.00;99.90;;;;;;5009895;28;20065;-95
2021/11/02 18:11:30;;;;;;;7.00;3.10;;;10.00;99.90;;;;;;5013887;28;20037;-93
2021/11/02 18:13:56;;;;;;;8.20;4.35;;;10.10;99.90;;;;;;5014435;28;20036;-93
2021/11/02 18:16:23;;;;;;;7.93;3.92;;;10.10;99.90;;;;;;5011018;28;20018;-94
2021/11/02 18:19:03;;;;;;;14.55;5.40;;;10.10;99.90;;;;;;5010949;28;20033;-94
2021/11/02 18:21:30;;;;;;;12.20;4.82;;;10.10;99.90;;;;;;5014339;28;20034;-95
2021/11/02 18:23:59;;;;;;;12.10;3.85;;;10.00;99.90;;;;;;5010633;28;20033;-93
2021/11/02 18:26:28;;;;;;;9.23;3.70;;;10.00;99.90;;;;;;5006182;28;20030;-93
2021/11/02 18:28:54;;;;;;;8.43;3.65;;;10.00;99.90;;;;;;5010594;28;20026;-95
2021/11/02 18:31:21;;;;;;;8.77;3.90;;;9.90;99.90;;;;;;5023837;28;20037;-95
2021/11/02 18:33:49;;;;;;;9.60;3.42;;;9.90;99.90;;;;;;5016908;28;20049;-93
2021/11/02 18:36:16;;;;;;;9.32;3.13;;;9.80;99.90;;;;;;5015230;28;20010;-94
2021/11/02 18:38:45;;;;;;;6.00;2.47;;;9.80;99.90;;;;;;5018542;28;20030;-95
2021/11/02 18:41:11;;;;;;;3.70;2.05;;;9.80;99.90;;;;;;4994303;28;20038;-96
2021/11/02 18:43:38;;;;;;;7.95;2.95;;;9.70;99.90;;;;;;5008976;28;20045;-94
2021/11/02 18:46:04;;;;;;;10.73;4.55;;;9.70;99.90;;;;;;5016193;28;20030;-95
2021/11/02 18:48:31;;;;;;;9.93;2.88;;;9.70;99.90;;;;;;5017918;28;20029;-94
2021/11/02 18:50:57;;;;;;;5.65;2.35;;;9.60;99.90;;;;;;5020313;28;20038;-95
2021/11/02 18:53:26;;;;;;;4.47;2.03;;;9.40;99.90;;;;;;5018145;28;20076;-94
2021/11/02 18:55:55;;;;;;;9.52;2.10;;;9.30;99.90;;;;;;5018779;28;20014;-93
2021/11/02 18:58:22;;;;;;;3.67;1.30;;;9.20;99.90;;;;;;5036109;28;20025;-95
2021/11/02 19:00:51;;;;;;;3.83;1.55;;;9.00;99.90;;;;;;5037985;28;20026;-94
2021/11/02 19:05:52;;;;;;;5.57;1.50;;;8.90;99.90;;;;;;5310069;22;20054;-95
2021/11/02 19:08:19;;;;;;;2.28;1.20;;;8.80;99.90;;;;;;4982292;28;20165;-94
2021/11/02 19:10:47;;;;;;;2.95;1.42;;;8.80;99.90;;;;;;4974766;28;20397;-93
2021/11/02 19:13:14;;;;;;;7.22;2.10;;;8.80;99.90;;;;;;4996762;28;20082;-94
2021/11/02 19:15:41;;;;;;;2.15;1.00;;;8.80;99.90;;;;;;4985023;28;20431;-94
2021/11/02 19:18:10;;;;;;;2.78;0.60;;;8.70;99.90;;;;;;4992235;28;20089;-95
2021/11/02 19:20:40;;;;;;;1.47;0.70;;;8.70;99.90;;;;;;5006893;28;20030;-95
2021/11/02 19:23:20;;;;;;;3.93;0.83;;;8.70;99.90;;;;;;5012234;28;20046;-95
2021/11/02 19:28:51;;;;;;;2.17;0.80;;;8.50;99.90;;;;;;5009397;28;20026;-95
2021/11/02 19:31:22;;;;;;;2.03;0.90;;;8.50;99.90;;;;;;5014309;28;20026;-94
2021/11/02 19:33:59;;;;;;;4.00;1.80;;;8.50;99.90;;;;;;5010686;28;20062;-95